createdAt,value
2023-02-03T00:02:25.080Z,3.00
2023-02-03T00:04:52.098Z,3.03
2023-02-03T00:07:19.385Z,3.20
2023-02-03T00:09:46.351Z,3.50
2023-02-03T00:12:14.769Z,4.07
2023-02-03T00:14:41.978Z,2.95
2023-02-03T00:17:09.104Z,3.47
2023-02-03T00:19:36.669Z,2.95
2023-02-03T00:22:03.747Z,3.80
2023-02-03T00:24:30.749Z,3.72
2023-02-03T00:26:58.355Z,4.38
2023-02-03T00:29:26.161Z,3.08
2023-02-03T00:31:54.367Z,4.25
2023-02-03T00:34:21.823Z,3.10
2023-02-03T00:36:49.557Z,4.07
2023-02-03T00:39:16.853Z,4.57
2023-02-03T00:41:44.458Z,4.18
2023-02-03T00:44:12.041Z,3.85
2023-02-03T00:46:40.099Z,3.80
2023-02-03T00:49:07.711Z,3.58
2023-02-03T00:51:35.681Z,3.25
2023-02-03T00:54:02.772Z,3.22
2023-02-03T00:56:29.913Z,3.42
2023-02-03T00:58:57.227Z,3.30
2023-02-03T01:01:24.941Z,3.83
2023-02-03T01:03:52.505Z,3.00
2023-02-03T01:06:21.350Z,3.75
2023-02-03T01:08:49.206Z,3.40
2023-02-03T01:11:21.007Z,3.38
2023-02-03T01:13:50.424Z,2.92
2023-02-03T01:16:19.224Z,3.20
2023-02-03T01:18:47.546Z,3.22
2023-02-03T01:21:18.172Z,3.40
2023-02-03T01:23:46.130Z,2.72
2023-02-03T01:26:16.783Z,3.63
2023-02-03T01:28:44.085Z,2.90
2023-02-03T01:31:18.013Z,3.75
2023-02-03T01:33:48.811Z,3.33
2023-02-03T01:36:17.109Z,4.25
2023-02-03T01:38:45.421Z,4.03
2023-02-03T01:41:15.672Z,3.80
2023-02-03T01:43:46.624Z,3.55
2023-02-03T01:46:35.325Z,4.30
2023-02-03T01:49:18.575Z,3.65
2023-02-03T01:51:47.334Z,3.00
2023-02-03T01:54:19.526Z,3.72
2023-02-03T01:56:51.561Z,4.18
2023-02-03T01:59:22.251Z,3.63
2023-02-03T02:01:52.292Z,3.35
2023-02-03T02:04:22.385Z,3.35
2023-02-03T02:06:51.444Z,4.15
2023-02-03T02:09:18.669Z,3.33
2023-02-03T02:11:46.201Z,3.85
2023-02-03T02:14:13.444Z,2.67
2023-02-03T02:16:57.995Z,2.97
2023-02-03T02:19:43.923Z,3.30
2023-02-03T02:22:31.231Z,3.08
2023-02-03T02:25:20.291Z,3.47
2023-02-03T02:27:47.560Z,3.10
2023-02-03T02:30:24.125Z,3.55
2023-02-03T02:33:01.914Z,3.47
2023-02-03T02:35:57.556Z,3.10
2023-02-03T02:38:43.905Z,3.50
2023-02-03T02:41:27.905Z,3.35
2023-02-03T02:44:08.011Z,3.30
2023-02-03T02:46:54.901Z,4.03
2023-02-03T02:49:30.070Z,2.97
2023-02-03T02:52:00.709Z,3.53
2023-02-03T02:54:33.929Z,3.28
2023-02-03T02:57:04.609Z,3.78
2023-02-03T02:59:32.083Z,3.42
2023-02-03T03:02:00.433Z,3.63
2023-02-03T03:04:30.760Z,3.63
2023-02-03T03:07:11.844Z,3.60
2023-02-03T03:09:44.283Z,3.70
2023-02-03T03:12:31.927Z,3.95
2023-02-03T03:15:05.692Z,3.22
2023-02-03T03:17:37.858Z,2.95
2023-02-03T03:20:13.517Z,3.22
2023-02-03T03:22:51.620Z,3.60
2023-02-03T03:25:23.025Z,4.13
2023-02-03T03:27:55.077Z,3.45
2023-02-03T03:30:30.043Z,4.45
2023-02-03T03:32:59.205Z,4.07
2023-02-03T03:35:33.258Z,3.55
2023-02-03T03:38:11.527Z,3.92
2023-02-03T03:40:51.605Z,4.47
2023-02-03T03:43:24.398Z,3.33
2023-02-03T03:46:14.494Z,4.28
2023-02-03T03:48:53.594Z,3.85
2023-02-03T03:51:27.387Z,3.10
2023-02-03T03:53:58.543Z,4.07
2023-02-03T03:56:32.008Z,3.55
2023-02-03T03:59:03.215Z,3.20
2023-02-03T04:01:31.476Z,3.95
2023-02-03T04:04:03.011Z,4.05
2023-02-03T04:06:30.107Z,3.40
2023-02-03T04:08:57.281Z,3.72
2023-02-03T04:11:43.032Z,3.53
2023-02-03T04:14:10.097Z,3.70
2023-02-03T04:16:37.007Z,4.22
2023-02-03T04:19:04.141Z,3.13
2023-02-03T04:21:31.023Z,3.75
2023-02-03T04:23:59.464Z,2.95
2023-02-03T04:26:26.467Z,3.30
2023-02-03T04:28:53.524Z,4.65
2023-02-03T04:31:20.672Z,2.88
2023-02-03T04:33:49.059Z,3.60
2023-02-03T04:36:15.943Z,3.08
2023-02-03T04:38:43.450Z,3.60
2023-02-03T04:41:10.416Z,3.30
2023-02-03T04:43:37.457Z,3.63
2023-02-03T04:46:05.913Z,3.40
2023-02-03T04:48:33.337Z,2.97
2023-02-03T04:51:08.951Z,3.42
2023-02-03T04:53:37.128Z,2.90
2023-02-03T04:56:06.109Z,4.63
2023-02-03T04:58:33.412Z,4.07
2023-02-03T05:01:08.305Z,3.88
2023-02-03T05:03:38.689Z,3.70
2023-02-03T05:06:06.251Z,3.28
2023-02-03T05:08:34.345Z,3.13
2023-02-03T05:11:02.388Z,3.10
2023-02-03T05:13:30.022Z,3.33
2023-02-03T05:15:57.155Z,2.75
2023-02-03T05:18:24.366Z,3.95
2023-02-03T05:20:51.485Z,3.45
2023-02-03T05:23:18.423Z,3.17
2023-02-03T05:25:46.311Z,3.75
2023-02-03T05:28:14.703Z,3.20
2023-02-03T05:30:41.993Z,3.13
2023-02-03T05:33:11.888Z,3.67
2023-02-03T05:35:39.272Z,3.05
2023-02-03T05:38:06.421Z,3.85
2023-02-03T05:40:52.476Z,3.92
2023-02-03T05:43:20.990Z,3.47
2023-02-03T05:45:47.990Z,4.25
2023-02-03T05:48:15.149Z,3.70
2023-02-03T05:50:42.802Z,3.30
2023-02-03T05:53:10.209Z,3.83
2023-02-03T05:55:38.169Z,3.70
2023-02-03T05:58:05.928Z,4.72
2023-02-03T06:00:33.154Z,3.45
2023-02-03T06:03:02.869Z,4.90
2023-02-03T06:05:31.057Z,3.33
2023-02-03T06:07:58.527Z,3.40
2023-02-03T06:10:26.123Z,4.07
2023-02-03T06:12:54.576Z,4.18
2023-02-03T06:15:21.573Z,4.05
2023-02-03T06:17:49.478Z,3.15
2023-02-03T06:20:18.945Z,3.67
2023-02-03T06:22:46.307Z,3.65
2023-02-03T06:25:14.446Z,3.83
2023-02-03T06:27:42.287Z,4.55
2023-02-03T06:30:11.772Z,3.80
2023-02-03T06:32:39.059Z,4.20
2023-02-03T06:35:06.791Z,4.47
2023-02-03T06:37:33.827Z,3.88
2023-02-03T06:40:00.693Z,3.55
2023-02-03T06:42:29.159Z,4.53
2023-02-03T06:44:57.592Z,3.58
2023-02-03T06:47:24.803Z,3.22
2023-02-03T06:49:52.432Z,3.55
2023-02-03T06:52:20.064Z,3.95
2023-02-03T06:54:47.053Z,4.07
2023-02-03T06:57:14.023Z,4.20
2023-02-03T06:59:41.398Z,3.67
2023-02-03T07:02:10.290Z,4.20
2023-02-03T07:04:39.219Z,3.65
2023-02-03T07:07:06.502Z,4.65
2023-02-03T07:09:33.464Z,4.20
2023-02-03T07:12:00.414Z,4.43
2023-02-03T07:14:27.363Z,3.40
2023-02-03T07:16:54.784Z,4.32
2023-02-03T07:19:22.632Z,3.40
2023-02-03T07:21:49.915Z,4.00
2023-02-03T07:24:17.192Z,3.55
2023-02-03T07:26:44.643Z,3.58
2023-02-03T07:29:11.621Z,4.38
2023-02-03T07:31:38.752Z,4.43
2023-02-03T07:34:06.519Z,3.78
2023-02-03T07:36:33.920Z,5.30
2023-02-03T07:39:01.122Z,4.00
2023-02-03T07:41:28.443Z,4.40
2023-02-03T07:43:55.395Z,4.45
2023-02-03T07:46:22.477Z,4.35
2023-02-03T07:48:49.718Z,4.40
2023-02-03T07:51:16.712Z,3.42
2023-02-03T07:53:43.683Z,3.58
2023-02-03T07:56:12.410Z,3.92
2023-02-03T07:58:39.482Z,3.63
2023-02-03T08:01:12.879Z,3.90
2023-02-03T08:03:40.922Z,4.10
2023-02-03T08:06:08.891Z,5.03
2023-02-03T08:08:36.479Z,4.45
2023-02-03T08:11:04.297Z,4.20
2023-02-03T08:13:31.650Z,4.05
2023-02-03T08:15:59.114Z,4.03
2023-02-03T08:18:27.689Z,4.57
2023-02-03T08:20:54.597Z,4.03
2023-02-03T08:23:22.093Z,4.10
2023-02-03T08:25:52.984Z,4.03
2023-02-03T08:28:20.362Z,4.15
2023-02-03T08:30:47.542Z,4.05
2023-02-03T08:33:14.955Z,3.63
2023-02-03T08:35:46.213Z,4.57
2023-02-03T08:38:13.827Z,3.92
2023-02-03T08:40:40.840Z,4.88
2023-02-03T08:43:08.095Z,3.90
2023-02-03T08:45:36.986Z,4.97
2023-02-03T08:48:04.969Z,3.45
2023-02-03T08:50:31.968Z,3.53
2023-02-03T08:52:59.191Z,3.40
2023-02-03T08:55:26.962Z,3.70
2023-02-03T08:57:54.385Z,3.85
2023-02-03T09:00:21.694Z,3.40
2023-02-03T09:02:49.252Z,3.90
2023-02-03T09:05:20.722Z,5.07
2023-02-03T09:07:47.867Z,3.97
2023-02-03T09:10:15.065Z,3.65
2023-02-03T09:12:43.351Z,4.15
2023-02-03T09:15:10.838Z,3.75
2023-02-03T09:17:37.781Z,3.90
2023-02-03T09:20:05.361Z,4.00
2023-02-03T09:22:32.377Z,4.32
2023-02-03T09:25:00.515Z,3.75
2023-02-03T09:27:27.847Z,4.95
2023-02-03T09:29:56.012Z,3.75
2023-02-03T09:32:23.022Z,4.30
2023-02-03T09:34:50.078Z,4.63
2023-02-03T09:37:17.447Z,4.22
2023-02-03T09:39:44.503Z,4.05
2023-02-03T09:42:32.589Z,4.43
2023-02-03T09:45:14.958Z,3.78
2023-02-03T09:47:44.102Z,3.63
2023-02-03T09:50:20.671Z,4.20
2023-02-03T09:52:48.963Z,4.88
2023-02-03T09:55:31.510Z,4.82
2023-02-03T09:58:06.847Z,3.72
2023-02-03T10:00:40.781Z,3.72
2023-02-03T10:03:28.110Z,4.60
2023-02-03T10:06:33.290Z,3.47
2023-02-03T10:09:12.503Z,3.55
2023-02-03T10:11:50.153Z,3.60
2023-02-03T10:14:32.252Z,3.63
2023-02-03T10:17:05.687Z,3.15
2023-02-03T10:20:11.536Z,3.47
2023-02-03T10:22:47.654Z,4.30
2023-02-03T10:25:14.632Z,3.75
2023-02-03T10:27:44.042Z,3.70
2023-02-03T10:30:23.970Z,3.70
2023-02-03T10:33:10.539Z,3.58
2023-02-03T10:36:01.263Z,3.28
2023-02-03T10:38:40.368Z,3.35
2023-02-03T10:41:08.007Z,3.72
2023-02-03T10:43:48.881Z,2.92
2023-02-03T10:46:17.306Z,4.20
2023-02-03T10:48:45.906Z,3.47
2023-02-03T10:51:32.642Z,3.92
2023-02-03T10:54:01.739Z,3.72
2023-02-03T10:56:38.213Z,4.63
2023-02-03T10:59:09.591Z,4.68
2023-02-03T11:01:42.940Z,4.50
2023-02-03T11:04:29.187Z,4.40
2023-02-03T11:06:57.202Z,3.92
2023-02-03T11:09:37.560Z,3.67
2023-02-03T11:12:21.305Z,4.65
2023-02-03T11:14:53.796Z,3.70
2023-02-03T11:17:32.088Z,4.05
2023-02-03T11:20:16.939Z,3.97
2023-02-03T11:22:48.446Z,3.97
2023-02-03T11:25:24.648Z,4.22
2023-02-03T11:27:52.627Z,3.78
2023-02-03T11:30:30.428Z,2.80
2023-02-03T11:33:01.669Z,3.70
2023-02-03T11:35:31.965Z,3.20
2023-02-03T11:38:01.328Z,2.92
2023-02-03T11:40:34.389Z,3.65
2023-02-03T11:43:02.921Z,3.58
2023-02-03T11:45:42.936Z,3.75
2023-02-03T11:48:36.118Z,3.80
2023-02-03T11:51:46.378Z,3.25
2023-02-03T11:54:23.697Z,3.88
2023-02-03T11:56:59.416Z,3.10
2023-02-03T11:59:42.129Z,3.17
2023-02-03T12:02:42.778Z,3.25
2023-02-03T12:05:18.623Z,3.42
2023-02-03T12:08:15.621Z,3.95
2023-02-03T12:10:56.191Z,3.47
2023-02-03T12:13:42.732Z,3.33
2023-02-03T12:16:47.764Z,3.25
2023-02-03T12:19:40.430Z,3.33
2023-02-03T12:22:15.853Z,3.45
2023-02-03T12:24:56.722Z,3.17
2023-02-03T12:27:55.895Z,3.80
2023-02-03T12:30:28.613Z,3.53
2023-02-03T12:33:08.960Z,3.42
2023-02-03T12:36:23.754Z,3.50
2023-02-03T12:39:02.945Z,3.95
2023-02-03T12:41:36.248Z,3.22
2023-02-03T12:44:15.260Z,3.42
2023-02-03T12:47:02.913Z,3.95
2023-02-03T12:49:30.151Z,3.33
2023-02-03T12:52:12.048Z,3.80
2023-02-03T12:55:08.152Z,4.43
2023-02-03T12:58:02.087Z,4.38
2023-02-03T13:00:39.916Z,4.03
2023-02-03T13:03:23.139Z,3.75
2023-02-03T13:06:16.557Z,4.20
2023-02-03T13:08:59.501Z,4.72
2023-02-03T13:11:31.869Z,4.38
2023-02-03T13:14:26.527Z,3.95
2023-02-03T13:16:59.190Z,3.58
2023-02-03T13:19:30.706Z,3.22
2023-02-03T13:21:58.129Z,3.72
2023-02-03T13:24:26.592Z,3.95
2023-02-03T13:27:12.597Z,3.88
2023-02-03T13:30:00.189Z,3.85
2023-02-03T13:32:57.477Z,3.50
2023-02-03T13:35:36.906Z,4.35
2023-02-03T13:38:32.488Z,4.03
2023-02-03T13:41:26.151Z,4.03
2023-02-03T13:43:55.029Z,4.95
2023-02-03T13:46:29.713Z,4.25
2023-02-03T13:48:59.995Z,3.93
2023-02-03T13:51:35.096Z,3.35
2023-02-03T13:54:17.442Z,5.40
2023-02-03T13:57:02.515Z,4.97
2023-02-03T13:59:44.791Z,4.47
2023-02-03T14:02:24.489Z,4.47
2023-02-03T14:04:55.126Z,4.25
2023-02-03T14:07:35.916Z,4.13
2023-02-03T14:10:08.784Z,4.85
2023-02-03T14:12:38.256Z,4.30
2023-02-03T14:15:32.606Z,3.92
2023-02-03T14:18:01.683Z,4.28
2023-02-03T14:20:28.649Z,3.83
2023-02-03T14:23:33.787Z,4.35
2023-02-03T14:26:01.788Z,4.03
2023-02-03T14:28:42.939Z,3.75
2023-02-03T14:31:31.836Z,4.45
2023-02-03T14:34:07.532Z,4.40
2023-02-03T14:36:40.131Z,4.65
2023-02-03T14:39:20.102Z,4.40
2023-02-03T14:41:53.493Z,5.15
2023-02-03T14:44:25.167Z,5.40
2023-02-03T14:47:10.721Z,4.13
2023-02-03T14:50:05.776Z,4.43
2023-02-03T14:53:08.296Z,4.10
2023-02-03T14:55:54.806Z,4.88
2023-02-03T14:58:36.906Z,4.20
2023-02-03T15:01:05.569Z,4.43
2023-02-03T15:03:32.603Z,4.18
2023-02-03T15:06:05.291Z,4.45
2023-02-03T15:08:36.915Z,4.28
2023-02-03T15:11:22.870Z,4.20
2023-02-03T15:16:20.267Z,4.78
2023-02-03T15:18:55.140Z,3.90
2023-02-03T15:21:22.377Z,4.53
2023-02-03T15:23:51.171Z,4.32
2023-02-03T15:26:26.589Z,4.80
2023-02-03T15:28:59.062Z,3.65
2023-02-03T15:31:32.217Z,4.22
2023-02-03T15:34:03.820Z,4.35
2023-02-03T15:36:44.870Z,3.83
2023-02-03T15:39:41.345Z,4.15
2023-02-03T15:42:18.087Z,4.90
2023-02-03T15:45:02.318Z,4.18
2023-02-03T15:47:57.117Z,5.03
2023-02-03T15:50:37.382Z,4.40
2023-02-03T15:53:14.343Z,4.47
2023-02-03T15:55:48.526Z,5.65
2023-02-03T15:58:24.139Z,4.47
2023-02-03T16:00:57.402Z,5.28
2023-02-03T16:03:36.615Z,4.40
2023-02-03T16:06:14.101Z,4.13
2023-02-03T16:08:48.907Z,4.25
2023-02-03T16:11:36.417Z,5.57
2023-02-03T16:14:11.515Z,4.28
2023-02-03T16:17:04.893Z,4.63
2023-02-03T16:19:34.881Z,4.25
2023-02-03T16:22:02.260Z,4.78
2023-02-03T16:24:43.529Z,4.45
2023-02-03T16:27:32.510Z,4.47
2023-02-03T16:30:24.064Z,5.43
2023-02-03T16:33:36.482Z,5.03
2023-02-03T16:36:30.486Z,5.00
2023-02-03T16:39:20.698Z,3.90
2023-02-03T16:42:06.779Z,4.25
2023-02-03T16:44:52.490Z,4.47
2023-02-03T16:47:48.385Z,4.57
2023-02-03T16:50:40.046Z,4.05
2023-02-03T16:53:19.852Z,4.82
2023-02-03T16:55:47.953Z,4.30
2023-02-03T16:58:15.997Z,4.18
2023-02-03T17:00:48.123Z,4.50
2023-02-03T17:03:21.143Z,4.78
2023-02-03T17:05:50.101Z,3.88
2023-02-03T17:08:20.093Z,4.25
2023-02-03T17:10:50.791Z,4.05
2023-02-03T17:13:19.834Z,4.93
2023-02-03T17:15:52.820Z,4.38
2023-02-03T17:18:21.652Z,4.38
2023-02-03T17:20:48.573Z,4.35
2023-02-03T17:23:16.850Z,4.40
2023-02-03T17:25:45.954Z,4.63
2023-02-03T17:28:14.200Z,3.53
2023-02-03T17:30:41.621Z,4.15
2023-02-03T17:33:12.496Z,3.78
2023-02-03T17:35:43.804Z,4.28
2023-02-03T17:38:12.109Z,3.97
2023-02-03T17:54:37.542Z,3.15
2023-02-03T17:57:04.721Z,3.20
2023-02-03T17:59:34.205Z,3.17
2023-02-03T18:02:01.689Z,3.63
2023-02-03T18:04:30.381Z,3.28
2023-02-03T18:06:57.382Z,3.90
2023-02-03T18:09:25.614Z,3.50
2023-02-03T18:11:52.849Z,3.35
2023-02-03T18:14:19.854Z,3.45
2023-02-03T18:16:46.985Z,3.28
2023-02-03T18:19:15.985Z,3.95
2023-02-03T18:21:44.080Z,3.47
2023-02-03T18:24:13.505Z,3.78
2023-02-03T18:26:52.033Z,3.55
2023-02-03T18:29:24.416Z,4.13
2023-02-03T18:31:51.735Z,4.40
2023-02-03T18:34:18.921Z,4.10
2023-02-03T18:36:46.011Z,4.60
2023-02-03T18:39:18.006Z,4.25
2023-02-03T18:41:45.562Z,4.50
2023-02-03T18:44:12.556Z,5.07
2023-02-03T18:46:39.939Z,4.10
2023-02-03T18:49:09.588Z,3.80
2023-02-03T18:51:37.340Z,4.55
2023-02-03T18:54:04.714Z,4.32
2023-02-03T18:56:35.743Z,4.78
2023-02-03T18:59:08.829Z,4.18
2023-02-03T19:01:36.337Z,4.55
2023-02-03T19:04:07.140Z,4.63
2023-02-03T19:06:35.620Z,3.85
2023-02-03T19:09:06.046Z,4.88
2023-02-03T19:11:34.229Z,4.47
2023-02-03T19:14:03.152Z,4.50
2023-02-03T19:16:30.915Z,4.18
2023-02-03T19:18:58.172Z,4.90
2023-02-03T19:21:26.745Z,5.03
2023-02-03T19:23:53.782Z,4.60
2023-02-03T19:26:21.131Z,4.22
2023-02-03T19:28:49.578Z,4.60
2023-02-03T19:31:18.437Z,4.22
2023-02-03T19:33:46.120Z,4.22
2023-02-03T19:36:13.382Z,3.92
2023-02-03T19:38:40.406Z,4.40
2023-02-03T19:41:08.829Z,3.78
2023-02-03T19:43:36.112Z,4.18
2023-02-03T19:46:04.714Z,3.58
2023-02-03T19:48:32.657Z,4.55
2023-02-03T19:50:59.690Z,4.15
2023-02-03T19:53:26.839Z,5.25
2023-02-03T19:55:53.780Z,4.35
2023-02-03T19:58:21.238Z,3.90
2023-02-03T20:00:49.887Z,3.60
2023-02-03T20:03:18.313Z,4.18
2023-02-03T20:05:46.593Z,5.13
2023-02-03T20:08:14.994Z,4.18
2023-02-03T20:10:45.305Z,3.60
2023-02-03T20:13:13.749Z,4.30
2023-02-03T20:15:41.077Z,3.40
2023-02-03T20:18:08.512Z,4.57
2023-02-03T20:20:36.125Z,3.42
2023-02-03T20:23:03.262Z,3.60
2023-02-03T20:25:31.068Z,2.78
2023-02-03T20:28:00.134Z,3.13
2023-02-03T20:30:27.170Z,2.63
2023-02-03T20:32:56.957Z,2.75
2023-02-03T20:35:26.477Z,2.92
2023-02-03T20:37:53.905Z,2.40
2023-02-03T20:40:23.425Z,2.65
2023-02-03T20:42:53.230Z,2.30
2023-02-03T20:45:23.473Z,2.30
2023-02-03T20:47:51.541Z,2.22
2023-02-03T20:50:31.547Z,2.58
2023-02-03T20:53:11.788Z,1.98
2023-02-03T20:55:38.984Z,2.25
2023-02-03T20:58:25.591Z,3.00
2023-02-03T21:00:53.455Z,3.42
2023-02-03T21:03:39.709Z,3.08
2023-02-03T21:06:18.409Z,3.20
2023-02-03T21:08:47.611Z,2.90
2023-02-03T21:11:17.358Z,3.17
2023-02-03T21:13:45.969Z,2.70
2023-02-03T21:16:20.968Z,2.60
2023-02-03T21:18:56.793Z,2.60
2023-02-03T21:21:36.758Z,2.53
2023-02-03T21:24:24.931Z,2.35
2023-02-03T21:26:52.493Z,2.65
2023-02-03T21:29:37.683Z,2.75
2023-02-03T21:32:13.798Z,3.10
2023-02-03T21:34:44.472Z,2.72
2023-02-03T21:37:23.395Z,2.22
2023-02-03T21:39:54.686Z,2.80
2023-02-03T21:42:43.725Z,2.83
2023-02-03T21:45:17.116Z,2.75
2023-02-03T21:47:45.407Z,3.28
2023-02-03T21:50:35.763Z,2.72
2023-02-03T21:53:13.033Z,3.08
2023-02-03T21:55:42.408Z,3.35
2023-02-03T21:58:23.936Z,3.05
2023-02-03T22:00:53.461Z,3.55
2023-02-03T22:03:25.547Z,2.90
2023-02-03T22:06:14.372Z,3.05
2023-02-03T22:08:47.199Z,2.70
2023-02-03T22:11:15.678Z,2.40
2023-02-03T22:13:43.054Z,2.10
2023-02-03T22:16:11.143Z,2.25
2023-02-03T22:18:40.081Z,2.78
2023-02-03T22:21:07.854Z,2.50
2023-02-03T22:23:35.004Z,2.55
2023-02-03T22:26:02.183Z,2.55
2023-02-03T22:28:29.163Z,3.15
2023-02-03T22:30:56.161Z,2.78
2023-02-03T22:33:23.481Z,3.15
2023-02-03T22:35:50.374Z,2.88
2023-02-03T22:38:18.573Z,3.30
2023-02-03T22:40:45.854Z,3.40
2023-02-03T22:43:12.851Z,3.42
2023-02-03T22:45:39.957Z,3.85
2023-02-03T22:48:07.687Z,4.07
2023-02-03T22:50:37.545Z,3.25
2023-02-03T22:53:06.389Z,4.28
2023-02-03T22:55:35.110Z,3.55
2023-02-03T22:58:03.802Z,3.28
2023-02-03T23:00:33.776Z,3.38
2023-02-03T23:03:01.410Z,3.50
2023-02-03T23:05:28.960Z,3.80
2023-02-03T23:07:56.307Z,2.95
2023-02-03T23:10:26.220Z,3.05
2023-02-03T23:12:53.297Z,3.92
2023-02-03T23:15:20.705Z,3.13
2023-02-03T23:17:48.130Z,3.10
2023-02-03T23:20:18.331Z,4.07
2023-02-03T23:22:48.113Z,2.95
2023-02-03T23:25:16.328Z,3.15
2023-02-03T23:27:43.719Z,2.58
2023-02-03T23:30:11.676Z,2.70
2023-02-03T23:32:39.029Z,2.92
2023-02-03T23:35:24.962Z,2.88
2023-02-03T23:40:19.109Z,2.65
2023-02-03T23:42:46.273Z,2.47
2023-02-03T23:45:13.497Z,2.28
2023-02-03T23:47:41.776Z,2.83
2023-02-03T23:50:10.274Z,3.90
2023-02-03T23:52:37.514Z,3.10
2023-02-03T23:55:10.686Z,2.55
2023-02-03T23:57:38.648Z,2.63
